地図

経路データ

SID SEASON NUMBER BASIN SUBBASIN NAME ISO_TIME NATURE LAT LON WMO_WIND WMO_PRES WMO_AGENCY TRACK_TYPE DIST2LAND LANDFALL IFLAG USA_AGENCY USA_ATCF_ID USA_LAT USA_LON USA_RECORD USA_STATUS USA_WIND USA_PRES USA_SSHS USA_R34_NE USA_R34_SE USA_R34_SW USA_R34_NW USA_R50_NE USA_R50_SE USA_R50_SW USA_R50_NW USA_R64_NE USA_R64_SE USA_R64_SW USA_R64_NW USA_POCI USA_ROCI USA_RMW USA_EYE TOKYO_LAT TOKYO_LON TOKYO_GRADE TOKYO_WIND TOKYO_PRES TOKYO_R50_DIR TOKYO_R50_LONG TOKYO_R50_SHORT TOKYO_R30_DIR TOKYO_R30_LONG TOKYO_R30_SHORT TOKYO_LAND CMA_LAT CMA_LON CMA_CAT CMA_WIND CMA_PRES HKO_LAT HKO_LON HKO_CAT HKO_WIND HKO_PRES NEWDELHI_LAT NEWDELHI_LON NEWDELHI_GRADE NEWDELHI_WIND NEWDELHI_PRES NEWDELHI_CI NEWDELHI_DP NEWDELHI_POCI REUNION_LAT REUNION_LON REUNION_TYPE REUNION_WIND REUNION_PRES REUNION_TNUM REUNION_CI REUNION_RMW REUNION_R34_NE REUNION_R34_SE REUNION_R34_SW REUNION_R34_NW REUNION_R50_NE REUNION_R50_SE REUNION_R50_SW REUNION_R50_NW REUNION_R64_NE REUNION_R64_SE REUNION_R64_SW REUNION_R64_NW BOM_LAT BOM_LON BOM_TYPE BOM_WIND BOM_PRES BOM_TNUM BOM_CI BOM_RMW BOM_R34_NE BOM_R34_SE BOM_R34_SW BOM_R34_NW BOM_R50_NE BOM_R50_SE BOM_R50_SW BOM_R50_NW BOM_R64_NE BOM_R64_SE BOM_R64_SW BOM_R64_NW BOM_ROCI BOM_POCI BOM_EYE BOM_POS_METHOD BOM_PRES_METHOD NADI_LAT NADI_LON NADI_CAT NADI_WIND NADI_PRES WELLINGTON_LAT WELLINGTON_LON WELLINGTON_WIND WELLINGTON_PRES DS824_LAT DS824_LON DS824_STAGE DS824_WIND DS824_PRES TD9636_LAT TD9636_LON TD9636_STAGE TD9636_WIND TD9636_PRES TD9635_LAT TD9635_LON TD9635_WIND TD9635_PRES TD9635_ROCI NEUMANN_LAT NEUMANN_LON NEUMANN_CLASS NEUMANN_WIND NEUMANN_PRES MLC_LAT MLC_LON MLC_CLASS MLC_WIND MLC_PRES USA_GUST BOM_GUST BOM_GUST_PER REUNION_GUST REUNION_GUST_PER USA_SEAHGT USA_SEARAD_NE USA_SEARAD_SE USA_SEARAD_SW USA_SEARAD_NW STORM_SPEED STORM_DIR
1864243N15338 1864 15 NA NA NOT_NAMED 1864-08-29 12:00:00 TS 15.0000 -22.5000 main 538 538 _____________O -1 15.0000 -22.5000 TD 30 8 285
1864243N15338 1864 15 NA NA NOT_NAMED 1864-08-29 15:00:00 TS 15.1102 -22.9124 main 582 582 _____________P -1 15.1102 -22.9124 TD 30 8 285
1864243N15338 1864 15 NA NA NOT_NAMED 1864-08-29 18:00:00 TS 15.2000 -23.3000 main 625 625 _____________O -1 15.2000 -23.3000 TD 30 7 282
1864243N15338 1864 15 NA NA NOT_NAMED 1864-08-29 21:00:00 TS 15.2574 -23.6501 main 669 669 _____________P -1 15.2574 -23.6501 TD 32 7 278
1864243N15338 1864 15 NA NA NOT_NAMED 1864-08-30 00:00:00 TS 15.3000 -24.0000 main 701 701 _____________O -1 15.3000 -24.0000 TS 35 7 277
1864243N15338 1864 15 NA NA NOT_NAMED 1864-08-30 03:00:00 TS 15.3500 -24.4000 main 745 745 _____________P -1 15.3500 -24.4000 TS 37 8 277
1864243N15338 1864 15 NA NA NOT_NAMED 1864-08-30 06:00:00 TS 15.4000 -24.8000 main 788 788 _____________O -1 15.4000 -24.8000 TS 40 7 277
1864243N15338 1864 15 NA NA NOT_NAMED 1864-08-30 09:00:00 TS 15.4349 -25.1501 main 830 830 _____________P -1 15.4349 -25.1501 TS 40 7 278
1864243N15338 1864 15 NA NA NOT_NAMED 1864-08-30 12:00:00 TS 15.5000 -25.5000 main 863 863 _____________O -1 15.5000 -25.5000 TS 40 8 286
1864243N15338 1864 15 NA NA NOT_NAMED 1864-08-30 15:00:00 TS 15.6425 -25.8999 main 907 907 _____________P -1 15.6425 -25.8999 TS 40 8 291
1864243N15338 1864 15 NA NA NOT_NAMED 1864-08-30 18:00:00 TS 15.8000 -26.3000 main 952 952 _____________O -1 15.8000 -26.3000 TS 40 8 290
1864243N15338 1864 15 NA NA NOT_NAMED 1864-08-30 21:00:00 TS 15.8999 -26.6501 main 996 996 _____________P -1 15.8999 -26.6501 TS 40 7 287
1864243N15338 1864 15 NA NA NOT_NAMED 1864-08-31 00:00:00 TS 16.0000 -27.0000 main 1029 1029 _____________O -1 16.0000 -27.0000 TS 40 8 289
1864243N15338 1864 15 NA NA NOT_NAMED 1864-08-31 03:00:00 TS 16.1500 -27.3999 main 1074 1074 _____________P -1 16.1500 -27.3999 TS 40 8 291
1864243N15338 1864 15 NA NA NOT_NAMED 1864-08-31 06:00:00 TS 16.3000 -27.8000 main 1118 1118 _____________O -1 16.3000 -27.8000 TS 40 8 288
1864243N15338 1864 15 NA NA NOT_NAMED 1864-08-31 09:00:00 TS 16.4001 -28.2100 main 1162 1162 _____________P -1 16.4001 -28.2100 TS 40 7 287
1864243N15338 1864 15 NA NA NOT_NAMED 1864-08-31 12:00:00 TS 16.5000 -28.5000 main 1195 1195 _____________O -1 16.5000 -28.5000 TS 40 4 307
1864243N15338 1864 15 NA NA NOT_NAMED 1864-08-31 15:00:00 TS 16.6499 -28.5526 main 1207 1198 _____________P -1 16.6499 -28.5526 TS 40 3 0
1864243N15338 1864 15 NA NA NOT_NAMED 1864-08-31 18:00:00 TS 16.8000 -28.5000 main 1200 1200 _____________O -1 16.8000 -28.5000 TS 40 3 13
1864243N15338 1864 15 NA NA NOT_NAMED 1864-08-31 21:00:00 TS 16.9000 -28.5000 main 1202 1202 _____________P -1 16.9000 -28.5000 TS 40 2 8
1864243N15338 1864 15 NA NA NOT_NAMED 1864-09-01 00:00:00 TS 17.0000 -28.5000 main 1204 1204 _____________O -1 17.0000 -28.5000 TS 40 3 2
1864243N15338 1864 15 NA NA NOT_NAMED 1864-09-01 03:00:00 TS 17.1500 -28.5000 main 1209 1206 _____________P -1 17.1500 -28.5000 TS 40 3 0
1864243N15338 1864 15 NA NA NOT_NAMED 1864-09-01 06:00:00 TS 17.3000 -28.5000 main 1211 1211 _____________O -1 17.3000 -28.5000 TS 40 2 6
1864243N15338 1864 15 NA NA NOT_NAMED 1864-09-01 09:00:00 TS 17.3925 -28.4925 main 1213 1213 _____________P -1 17.3925 -28.4925 TS 37 2 8
1864243N15338 1864 15 NA NA NOT_NAMED 1864-09-01 12:00:00 TS 17.5000 -28.5000 main 1216 1216 _____________O -1 17.5000 -28.5000 TS 35 3 351
1864243N15338 1864 15 NA NA NOT_NAMED 1864-09-01 15:00:00 TS 17.6850 -28.5425 main 1221 1221 _____________P -1 17.6850 -28.5425 TS 32 4 347
1864243N15338 1864 15 NA NA NOT_NAMED 1864-09-01 18:00:00 TS 17.9000 -28.6000 main 1237 1237 _____________O -1 17.9000 -28.6000 TD 30 4 346
1864243N15338 1864 15 NA NA NOT_NAMED 1864-09-01 21:00:00 TS 18.1050 -28.6525 main 1252 1246 _____________P -1 18.1050 -28.6525 TD 27 4 347
1864243N15338 1864 15 NA NA NOT_NAMED 1864-09-02 00:00:00 TS 18.3000 -28.7000 main 1246 _____________O -1 18.3000 -28.7000 TD 25 4 350

IBTrACS Databaseについて

本データベースは、米国NOAAが公開する1842年以降の世界の熱帯低気圧のベストトラックデータアーカイブInternational Best Track Archive for Climate Stewardship (IBTrACS)を、ウェブで閲覧しやすい形式に変換したものです。

最終更新日:2021-12-03